Time;durP1;ratioP1;P1;durP2;ratioP2;P2;SDS_P1;SDS_P2;PMS_P1;PMS_P2;Temp;Humidity;BMP_temperature;BMP_pressure;BME280_temperature;BME280_humidity;BME280_pressure;Samples;Min_cycle;Max_cycle;Signal;HPM_P1;HPM_P2
2022/12/18 00:00:43;;;;;;;;;57.50;42.75;;;;;1.26;54.13;101997.03;5039557;28;46219;-66
2022/12/18 00:03:09;;;;;;;;;56.25;43.75;;;;;1.31;54.64;102012.31;5043991;28;45735;-65
2022/12/18 00:05:34;;;;;;;;;90.25;64.25;;;;;1.31;54.42;102004.44;5038139;28;45395;-64
2022/12/18 00:07:59;;;;;;;;;74.75;54.25;;;;;1.35;54.38;102007.41;5037807;28;45763;-64
2022/12/18 00:10:27;;;;;;;;;71.75;54.50;;;;;1.40;54.47;102005.19;5036034;28;45679;-62
2022/12/18 00:12:52;;;;;;;;;62.00;48.25;;;;;1.32;53.46;102003.63;5038422;28;45572;-62
2022/12/18 00:15:18;;;;;;;;;57.00;42.00;;;;;1.25;54.14;101997.84;5036024;28;45491;-64
2022/12/18 00:17:43;;;;;;;;;59.00;45.25;;;;;1.24;55.24;102001.28;5034421;28;45317;-66
2022/12/18 00:20:09;;;;;;;;;55.25;44.25;;;;;1.20;54.90;101998.25;5036505;28;45642;-66
2022/12/18 00:22:34;;;;;;;;;85.00;59.25;;;;;1.05;54.15;101974.19;5045190;28;45550;-65
2022/12/18 00:25:00;;;;;;;;;49.75;42.75;;;;;1.25;54.35;101996.91;5045025;28;50023;-65
2022/12/18 00:27:25;;;;;;;;;56.00;42.25;;;;;1.32;54.94;101998.34;5036848;28;45467;-66
2022/12/18 00:29:50;;;;;;;;;62.75;47.50;;;;;1.21;53.95;101985.22;5037656;28;45416;-63
2022/12/18 00:32:15;;;;;;;;;57.50;44.00;;;;;1.35;54.15;101999.50;5037060;28;45658;-63
2022/12/18 00:34:41;;;;;;;;;58.25;43.50;;;;;1.29;54.63;101985.88;5046679;28;45915;-62
2022/12/18 00:37:06;;;;;;;;;46.00;43.25;;;;;1.39;54.64;102006.91;5049652;28;45410;-67
2022/12/18 00:39:31;;;;;;;;;50.50;38.50;;;;;1.40;54.46;102006.13;5044400;28;61537;-64
2022/12/18 00:44:41;;;;;;;;;62.25;42.00;;;;;1.51;53.68;102008.72;5036101;28;45331;-65
2022/12/18 00:47:06;;;;;;;;;47.75;39.50;;;;;1.57;54.29;102011.88;5035738;28;45323;-64
2022/12/18 00:49:31;;;;;;;;;56.25;42.75;;;;;1.54;54.42;102012.53;5046468;28;47207;-64
2022/12/18 00:51:57;;;;;;;;;50.75;39.75;;;;;1.43;54.58;101997.53;5038246;28;45324;-66
2022/12/18 00:54:22;;;;;;;;;74.25;53.50;;;;;1.47;53.73;102003.19;5037047;28;45376;-63
2022/12/18 00:56:48;;;;;;;;;60.00;40.00;;;;;1.45;54.30;102004.78;5039124;28;45568;-62
2022/12/18 00:59:13;;;;;;;;;47.00;41.50;;;;;1.43;54.07;102002.81;5040415;28;45423;-64
2022/12/18 01:01:38;;;;;;;;;53.50;42.50;;;;;1.38;53.77;101980.44;5035344;28;56204;-64
2022/12/18 01:04:05;;;;;;;;;49.00;40.75;;;;;1.39;54.26;102009.53;5036748;28;45408;-61
2022/12/18 01:06:30;;;;;;;;;56.50;44.50;;;;;1.39;55.03;101998.09;5041935;28;45525;-63
2022/12/18 01:08:56;;;;;;;;;44.75;36.00;;;;;1.43;53.77;102001.06;5041891;28;45539;-63
2022/12/18 01:11:22;;;;;;;;;49.50;40.75;;;;;1.45;52.94;101988.03;5038884;28;45627;-64
2022/12/18 01:13:47;;;;;;;;;55.00;42.75;;;;;1.24;53.65;101948.63;5041911;28;45374;-63
2022/12/18 01:16:15;;;;;;;;;58.50;42.25;;;;;1.51;53.57;101990.28;5034949;28;45468;-62
2022/12/18 01:18:41;;;;;;;;;60.00;43.50;;;;;1.19;52.97;101933.22;5036767;28;45917;-63
2022/12/18 01:21:08;;;;;;;;;32.25;28.75;;;;;1.35;53.34;101973.19;5037365;28;45492;-64
2022/12/18 01:23:34;;;;;;;;;50.00;42.00;;;;;1.41;54.22;101980.69;5035758;28;45599;-64
2022/12/18 01:26:11;;;;;;;;;44.50;33.50;;;;;1.37;53.68;101970.69;5035351;28;46625;-63
2022/12/18 01:28:36;;;;;;;;;57.50;42.00;;;;;1.46;53.37;101982.00;5034156;28;45415;-62
2022/12/18 01:31:24;;;;;;;;;45.50;39.00;;;;;1.44;53.64;101983.59;5037230;28;45546;-65
2022/12/18 01:33:50;;;;;;;;;51.50;42.75;;;;;1.44;53.57;101981.88;5042008;28;45670;-64
2022/12/18 01:36:20;;;;;;;;;53.50;43.50;;;;;1.45;53.53;101990.69;5045547;28;45450;-65
2022/12/18 01:38:47;;;;;;;;;46.25;39.75;;;;;1.50;53.29;101991.97;5033645;28;46429;-63
2022/12/18 01:41:14;;;;;;;;;39.50;36.75;;;;;1.47;53.65;101987.38;5040222;28;45536;-62
2022/12/18 01:43:49;;;;;;;;;53.00;39.75;;;;;1.51;53.28;101991.19;5037818;28;45511;-63
2022/12/18 01:46:15;;;;;;;;;42.25;33.25;;;;;1.51;53.99;101983.28;5047426;28;45532;-63
2022/12/18 01:48:42;;;;;;;;;48.00;40.50;;;;;1.46;52.92;101971.47;5035455;28;45522;-64
2022/12/18 01:51:10;;;;;;;;;67.00;43.50;;;;;1.53;53.27;101983.41;5034160;28;45402;-62
2022/12/18 01:53:36;;;;;;;;;57.50;40.75;;;;;1.44;53.40;101987.13;5034702;28;45524;-64
2022/12/18 01:56:02;;;;;;;;;46.25;36.25;;;;;1.37;53.72;101966.38;5035456;28;45640;-63
2022/12/18 01:58:32;;;;;;;;;64.25;45.75;;;;;1.36;53.38;101967.16;5037580;28;45509;-63
2022/12/18 02:00:57;;;;;;;;;50.00;38.00;;;;;1.22;53.55;101950.22;5049119;28;45413;-63
2022/12/18 02:03:22;;;;;;;;;60.50;45.00;;;;;1.33;53.29;101953.72;5043065;28;45343;-63
2022/12/18 02:06:09;;;;;;;;;57.25;40.75;;;;;1.27;52.99;101950.56;5035187;28;45454;-67
2022/12/18 02:08:50;;;;;;;;;60.50;44.00;;;;;1.21;53.56;101953.63;5044261;28;45587;-64
2022/12/18 02:11:37;;;;;;;;;67.00;46.00;;;;;1.05;53.74;101950.50;5034907;28;45836;-63
2022/12/18 02:14:12;;;;;;;;;58.50;39.75;;;;;1.03;54.64;101949.47;5045992;28;45488;-62
2022/12/18 02:16:43;;;;;;;;;60.75;40.25;;;;;0.99;54.31;101956.19;5034784;28;45380;-63
2022/12/18 02:19:34;;;;;;;;;55.50;44.00;;;;;1.04;54.64;101954.84;5032788;28;45686;-65
2022/12/18 02:22:20;;;;;;;;;44.00;39.75;;;;;1.04;53.72;101953.91;5033834;28;45442;-62
2022/12/18 02:25:14;;;;;;;;;58.00;43.75;;;;;0.95;53.95;101945.25;5035138;28;45481;-62
2022/12/18 02:27:45;;;;;;;;;47.50;39.25;;;;;0.79;54.47;101943.03;5039380;28;45528;-62
2022/12/18 02:30:10;;;;;;;;;48.00;37.75;;;;;0.68;54.96;101924.66;5039711;28;45463;-63
2022/12/18 02:32:49;;;;;;;;;45.50;39.75;;;;;0.72;54.69;101944.22;5042257;28;45341;-63
2022/12/18 02:35:22;;;;;;;;;59.50;40.00;;;;;0.57;55.18;101920.19;5053665;28;45442;-62
2022/12/18 02:37:48;;;;;;;;;57.00;41.75;;;;;0.75;55.07;101938.31;5047231;28;46131;-63
2022/12/18 02:40:17;;;;;;;;;45.50;39.50;;;;;0.84;54.92;101941.72;5038851;28;46296;-63
2022/12/18 02:42:42;;;;;;;;;50.50;42.50;;;;;0.86;54.54;101917.38;5034263;28;45664;-63
2022/12/18 02:45:08;;;;;;;;;41.25;36.75;;;;;0.82;54.66;101898.59;5036023;28;45496;-63
2022/12/18 02:47:37;;;;;;;;;55.00;39.00;;;;;1.01;54.29;101923.00;5035854;28;45506;-62
2022/12/18 02:50:15;;;;;;;;;54.75;42.75;;;;;0.99;54.43;101921.03;5034929;28;46450;-62
2022/12/18 02:53:03;;;;;;;;;52.25;43.00;;;;;0.87;54.69;101921.84;5039493;28;46233;-61
2022/12/18 02:56:01;;;;;;;;;61.50;45.00;;;;;0.61;55.11;101917.03;5043898;28;45604;-62
2022/12/18 02:58:33;;;;;;;;;61.00;46.00;;;;;0.51;55.43;101919.63;5035423;28;45510;-64
2022/12/18 03:01:07;;;;;;;;;57.25;43.00;;;;;0.39;56.33;101919.50;5037773;28;46267;-64
2022/12/18 03:03:48;;;;;;;;;48.25;42.25;;;;;0.45;55.37;101903.38;5036160;28;45551;-62
2022/12/18 03:06:25;;;;;;;;;53.75;41.75;;;;;0.61;55.50;101905.56;5037441;28;45458;-64
2022/12/18 03:08:58;;;;;;;;;56.25;43.25;;;;;0.55;55.24;101898.09;5034197;28;45521;-64
2022/12/18 03:14:15;;;;;;;;;56.25;40.50;;;;;0.59;55.68;101908.06;5042937;28;46396;-62
2022/12/18 03:16:43;;;;;;;;;54.50;45.00;;;;;0.50;55.87;101900.31;5042074;28;45511;-63
2022/12/18 03:19:15;;;;;;;;;56.50;38.25;;;;;0.66;55.87;101913.09;5050747;28;45519;-62
2022/12/18 03:21:45;;;;;;;;;46.25;42.50;;;;;0.69;54.98;101912.41;5034527;28;46284;-64
2022/12/18 03:24:11;;;;;;;;;47.50;41.50;;;;;0.64;55.35;101919.00;5036485;28;45299;-61
2022/12/18 03:26:43;;;;;;;;;54.25;39.00;;;;;0.41;55.77;101923.19;5042182;28;45580;-62
2022/12/18 03:29:14;;;;;;;;;60.75;47.00;;;;;-0.26;57.17;101856.13;5036059;28;45429;-63
2022/12/18 03:31:46;;;;;;;;;56.00;44.00;;;;;-0.09;57.24;101896.09;5032680;28;45414;-62
2022/12/18 03:34:18;;;;;;;;;64.75;46.50;;;;;0.09;56.86;101923.97;5032487;28;45521;-62
2022/12/18 03:36:43;;;;;;;;;53.00;41.25;;;;;-0.14;56.66;101852.75;5034689;28;46406;-62
2022/12/18 03:39:09;;;;;;;;;60.25;42.75;;;;;0.26;56.07;101903.47;5037877;28;45546;-62
2022/12/18 03:41:47;;;;;;;;;53.75;44.00;;;;;0.36;56.26;101914.94;5036722;28;56270;-61
2022/12/18 03:44:24;;;;;;;;;53.75;44.25;;;;;0.42;55.97;101916.25;5043896;28;46300;-62
2022/12/18 03:47:04;;;;;;;;;59.75;45.50;;;;;0.50;55.77;101915.19;5037779;28;45572;-62
2022/12/18 03:50:03;;;;;;;;;65.75;49.75;;;;;0.48;56.92;101920.31;5050327;28;45535;-61
2022/12/18 03:52:46;;;;;;;;;57.00;44.00;;;;;0.57;56.17;101908.75;5040193;28;46356;-64
2022/12/18 03:55:12;;;;;;;;;62.75;44.75;;;;;0.60;55.63;101893.22;5034421;28;45458;-62
2022/12/18 03:57:39;;;;;;;;;59.75;46.50;;;;;0.65;55.49;101895.44;5029351;28;45303;-63
2022/12/18 04:00:09;;;;;;;;;56.75;44.25;;;;;0.71;55.56;101897.66;5048475;28;45631;-62
2022/12/18 04:02:40;;;;;;;;;65.75;47.75;;;;;0.79;55.59;101891.34;5040673;28;46139;-62
2022/12/18 04:05:08;;;;;;;;;56.50;44.00;;;;;0.84;55.68;101886.47;5043357;28;45515;-62
2022/12/18 04:07:34;;;;;;;;;70.25;43.75;;;;;0.83;54.68;101863.59;5040009;28;45735;-62
2022/12/18 04:10:01;;;;;;;;;56.00;43.75;;;;;0.87;55.21;101874.47;5043480;28;45354;-63
2022/12/18 04:12:29;;;;;;;;;49.00;41.75;;;;;0.49;55.01;101829.22;5041907;28;45402;-63
2022/12/18 04:14:55;;;;;;;;;49.50;43.50;;;;;0.47;55.85;101839.59;5037048;28;45347;-64
2022/12/18 04:17:20;;;;;;;;;51.25;43.50;;;;;0.41;55.47;101827.63;5036130;28;45461;-62
2022/12/18 04:19:46;;;;;;;;;53.50;44.50;;;;;0.72;56.01;101889.91;5045127;28;45324;-62
2022/12/18 04:22:11;;;;;;;;;59.50;43.75;;;;;0.47;55.25;101828.16;5042224;28;45938;-61
2022/12/18 04:24:37;;;;;;;;;56.00;44.25;;;;;0.63;55.60;101889.16;5049972;28;45213;-62
2022/12/18 04:27:03;;;;;;;;;54.25;44.25;;;;;0.60;55.80;101893.22;5039663;28;45376;-64
2022/12/18 04:29:28;;;;;;;;;60.50;43.75;;;;;0.67;56.67;101885.06;5045522;28;44806;-62
2022/12/18 04:31:54;;;;;;;;;64.50;47.00;;;;;0.68;55.80;101873.75;5040910;28;46258;-63
2022/12/18 04:34:19;;;;;;;;;51.25;42.00;;;;;0.77;55.33;101887.66;5054545;28;45557;-63
2022/12/18 04:36:45;;;;;;;;;66.00;44.50;;;;;0.79;55.17;101883.44;5040008;28;45858;-65
2022/12/18 04:39:10;;;;;;;;;44.75;36.50;;;;;0.82;56.10;101886.34;5040704;28;45589;-62
2022/12/18 04:41:35;;;;;;;;;46.50;42.00;;;;;0.66;55.20;101859.53;5044085;28;45529;-63
2022/12/18 04:44:01;;;;;;;;;61.75;44.00;;;;;0.87;55.64;101887.63;5040140;28;60351;-61
2022/12/18 04:46:26;;;;;;;;;55.75;42.50;;;;;0.91;54.85;101894.09;5044987;28;46621;-64
2022/12/18 04:48:52;;;;;;;;;46.25;43.25;;;;;0.91;55.09;101892.38;5045157;28;45660;-62
2022/12/18 04:51:17;;;;;;;;;48.00;39.00;;;;;-0.24;54.75;101682.94;5040734;28;46094;-62
2022/12/18 04:53:42;;;;;;;;;55.00;40.00;;;;;0.94;55.34;101902.25;5034890;28;45486;-64
2022/12/18 04:56:13;;;;;;;;;43.25;41.75;;;;;0.96;54.69;101892.78;5036019;28;45473;-63
2022/12/18 04:58:39;;;;;;;;;60.00;43.00;;;;;0.98;55.45;101893.81;5049092;28;45634;-61
2022/12/18 05:01:05;;;;;;;;;62.00;42.25;;;;;1.03;55.32;101902.09;5055377;28;46121;-63
2022/12/18 05:03:31;;;;;;;;;48.75;43.50;;;;;0.73;54.69;101846.13;5050566;28;45464;-62
2022/12/18 05:05:57;;;;;;;;;58.00;42.75;;;;;0.85;54.95;101862.00;5039197;28;45381;-63
2022/12/18 05:08:22;;;;;;;;;50.50;42.75;;;;;1.05;54.70;101897.88;5034815;28;45475;-65
2022/12/18 05:10:47;;;;;;;;;47.75;41.25;;;;;0.89;54.97;101872.94;5034654;28;46393;-61
2022/12/18 05:13:13;;;;;;;;;54.25;40.00;;;;;0.95;55.40;101896.19;5034858;28;45526;-63
2022/12/18 05:15:38;;;;;;;;;63.50;48.00;;;;;0.85;54.63;101897.13;5050910;28;45449;-62
2022/12/18 05:18:04;;;;;;;;;52.75;43.00;;;;;0.88;55.61;101904.38;5038074;28;45354;-65
2022/12/18 05:20:30;;;;;;;;;53.50;39.50;;;;;0.96;54.72;101907.63;5036824;28;46032;-63
2022/12/18 05:22:55;;;;;;;;;56.00;44.00;;;;;0.80;54.65;101882.66;5034619;28;45471;-62
2022/12/18 05:25:21;;;;;;;;;63.00;44.00;;;;;0.68;55.24;101865.88;5035140;28;45534;-61
2022/12/18 05:27:47;;;;;;;;;51.75;43.25;;;;;0.93;53.88;101928.44;5048504;28;45611;-61
2022/12/18 05:30:13;;;;;;;;;60.50;47.00;;;;;0.90;55.42;101923.81;5035087;28;47022;-63
2022/12/18 05:32:40;;;;;;;;;52.00;43.50;;;;;0.61;55.61;101860.88;5034020;28;45632;-62
2022/12/18 05:35:10;;;;;;;;;55.50;41.75;;;;;0.98;54.93;101921.84;5044335;28;45546;-63
2022/12/18 05:37:35;;;;;;;;;52.50;42.50;;;;;0.88;54.78;101907.91;5035634;28;45646;-63
2022/12/18 05:40:02;;;;;;;;;62.50;45.50;;;;;0.94;55.13;101923.31;5032955;28;46977;-61
2022/12/18 05:42:27;;;;;;;;;63.00;42.50;;;;;0.92;54.66;101922.22;5034018;28;45453;-63
2022/12/18 05:44:52;;;;;;;;;54.75;45.50;;;;;0.67;55.78;101890.31;5037082;28;45521;-62
2022/12/18 05:47:18;;;;;;;;;63.50;44.25;;;;;0.66;55.88;101906.88;5049174;28;45524;-62
2022/12/18 05:49:43;;;;;;;;;62.50;46.00;;;;;0.61;55.16;101900.31;5033694;28;46086;-60
2022/12/18 05:52:09;;;;;;;;;60.25;42.25;;;;;0.55;55.42;101887.56;5035744;28;48723;-64
2022/12/18 05:54:34;;;;;;;;;55.00;45.00;;;;;0.59;55.52;101904.53;5041361;28;46055;-63
2022/12/18 05:57:00;;;;;;;;;55.75;43.00;;;;;0.62;56.19;101904.78;5034440;28;45418;-64
2022/12/18 05:59:25;;;;;;;;;57.25;44.50;;;;;0.59;56.50;101892.28;5033679;28;56575;-64
2022/12/18 06:01:51;;;;;;;;;52.75;45.75;;;;;0.64;54.94;101895.31;5035488;28;45338;-62
2022/12/18 06:04:16;;;;;;;;;48.25;44.00;;;;;0.63;55.28;101891.78;5044948;28;46266;-65
2022/12/18 06:06:41;;;;;;;;;65.00;43.25;;;;;0.54;56.87;101886.66;5048946;28;45377;-61
2022/12/18 06:09:09;;;;;;;;;61.25;46.00;;;;;0.61;55.72;101892.44;5033739;28;52984;-61
2022/12/18 06:11:36;;;;;;;;;48.00;43.00;;;;;0.69;55.39;101888.72;5036928;28;45520;-61
2022/12/18 06:14:02;;;;;;;;;60.25;43.00;;;;;0.75;55.62;101881.38;5033803;28;45489;-63
2022/12/18 06:16:28;;;;;;;;;40.00;39.25;;;;;0.79;55.55;101872.00;5033548;28;45452;-63
2022/12/18 06:19:01;;;;;;;;;50.25;41.75;;;;;0.86;55.83;101882.28;5033717;28;46043;-66
2022/12/18 06:21:28;;;;;;;;;52.50;42.00;;;;;0.86;55.36;101882.28;5033913;28;45485;-65
2022/12/18 06:23:53;;;;;;;;;50.75;42.00;;;;;0.85;55.19;101880.44;5040127;28;45601;-63
2022/12/18 06:26:19;;;;;;;;;57.00;43.50;;;;;0.90;54.42;101893.16;5033393;28;45469;-64
2022/12/18 06:28:44;;;;;;;;;60.25;44.25;;;;;0.90;55.47;101887.00;5033127;28;45484;-62
2022/12/18 06:31:09;;;;;;;;;54.00;43.25;;;;;0.84;55.50;101862.78;5036735;28;45461;-63
2022/12/18 06:33:35;;;;;;;;;56.00;43.75;;;;;0.94;54.60;101880.25;5033338;28;45509;-62
2022/12/18 06:36:07;;;;;;;;;47.50;40.75;;;;;0.95;54.22;101876.84;5046042;28;45702;-64
2022/12/18 06:38:33;;;;;;;;;52.50;38.75;;;;;0.97;54.81;101876.16;5044237;28;47035;-65
2022/12/18 06:40:59;;;;;;;;;46.00;41.75;;;;;1.01;54.42;101882.63;5034722;28;45805;-63
2022/12/18 06:43:24;;;;;;;;;56.00;43.50;;;;;0.72;53.86;101833.75;5038402;28;45452;-62
2022/12/18 06:45:52;;;;;;;;;53.75;37.50;;;;;0.88;55.12;101871.06;5033672;28;45329;-63
2022/12/18 06:48:19;;;;;;;;;52.00;42.50;;;;;0.88;54.99;101885.94;5033087;28;46014;-63
2022/12/18 06:50:44;;;;;;;;;62.50;44.00;;;;;0.85;55.01;101894.50;5034597;28;45608;-62
2022/12/18 06:53:10;;;;;;;;;58.75;44.25;;;;;0.86;55.07;101884.91;5033172;28;45618;-63
2022/12/18 06:55:35;;;;;;;;;61.00;43.75;;;;;0.83;54.59;101875.03;5034529;28;45493;-62
2022/12/18 06:58:01;;;;;;;;;45.75;38.00;;;;;0.85;55.24;101865.56;5035621;28;45567;-64
2022/12/18 07:00:26;;;;;;;;;58.50;44.75;;;;;0.84;55.50;101875.94;5042516;28;45463;-63
2022/12/18 07:02:51;;;;;;;;;55.50;42.50;;;;;0.02;54.84;101737.69;5043116;28;45252;-63
2022/12/18 07:05:16;;;;;;;;;55.75;43.50;;;;;0.41;54.94;101789.13;5035598;28;45374;-63
2022/12/18 07:07:42;;;;;;;;;52.25;44.00;;;;;0.60;55.23;101841.56;5032665;28;46600;-63
2022/12/18 07:10:07;;;;;;;;;65.75;44.00;;;;;0.31;54.56;101795.34;5045916;28;55559;-62
2022/12/18 07:12:33;;;;;;;;;49.75;40.25;;;;;0.62;54.92;101845.22;5032799;28;45718;-63
2022/12/18 07:14:58;;;;;;;;;56.75;40.50;;;;;0.63;54.96;101868.09;5035044;28;45591;-64
2022/12/18 07:17:23;;;;;;;;;55.00;43.50;;;;;0.52;55.43;101859.31;5036262;28;45252;-62
2022/12/18 07:19:49;;;;;;;;;59.75;43.00;;;;;0.40;56.25;101850.38;5039872;28;57904;-63
2022/12/18 07:22:14;;;;;;;;;63.75;45.50;;;;;0.29;55.56;101851.19;5035955;28;45715;-62
2022/12/18 07:24:39;;;;;;;;;62.25;43.75;;;;;0.13;56.61;101852.50;5039092;28;51844;-63
2022/12/18 07:27:05;;;;;;;;;55.25;45.00;;;;;0.10;56.32;101851.28;5036829;28;46795;-65
2022/12/18 07:29:30;;;;;;;;;53.00;45.00;;;;;0.00;56.68;101847.00;5054996;28;56292;-63
2022/12/18 07:31:56;;;;;;;;;67.75;48.50;;;;;0.09;56.01;101863.53;5049218;28;45573;-63
2022/12/18 07:34:21;;;;;;;;;64.75;45.00;;;;;0.04;56.35;101856.03;5038509;28;45217;-61
2022/12/18 07:36:46;;;;;;;;;57.25;41.00;;;;;-0.06;56.71;101842.09;5035726;28;53812;-63
2022/12/18 07:39:12;;;;;;;;;55.25;44.75;;;;;-0.05;56.74;101861.41;5045020;28;45348;-64
2022/12/18 07:41:37;;;;;;;;;57.00;44.50;;;;;-0.05;56.33;101871.91;5044028;28;45505;-64
2022/12/18 07:44:03;;;;;;;;;60.25;46.00;;;;;-0.15;56.66;101875.44;5040101;28;45460;-62
2022/12/18 07:46:28;;;;;;;;;63.50;45.75;;;;;-0.16;57.09;101868.38;5036221;28;46231;-63
2022/12/18 07:48:53;;;;;;;;;50.25;40.00;;;;;-0.01;56.68;101884.53;5036142;28;45627;-63
2022/12/18 07:51:19;;;;;;;;;63.25;45.50;;;;;-0.13;56.79;101862.44;5036445;28;45679;-65
2022/12/18 07:53:44;;;;;;;;;54.75;44.00;;;;;-0.01;56.72;101884.53;5036521;28;45517;-61
2022/12/18 07:56:12;;;;;;;;;49.00;41.00;;;;;0.08;56.51;101892.28;5048868;28;46718;-64
2022/12/18 07:58:38;;;;;;;;;58.00;44.50;;;;;0.11;56.07;101882.97;5055006;28;45377;-64
2022/12/18 08:01:10;;;;;;;;;55.50;41.25;;;;;0.06;56.77;101872.84;5048157;28;45387;-64
2022/12/18 08:03:37;;;;;;;;;54.00;41.75;;;;;0.15;56.63;101877.19;5052364;28;45331;-62
2022/12/18 08:06:06;;;;;;;;;54.75;43.25;;;;;0.22;56.62;101868.13;5039836;28;46120;-65
2022/12/18 08:08:32;;;;;;;;;57.50;41.50;;;;;0.20;56.09;101864.47;5038375;28;45453;-60
2022/12/18 08:10:58;;;;;;;;;63.00;45.25;;;;;-0.17;55.82;101810.44;5049014;28;45429;-65
2022/12/18 08:13:24;;;;;;;;;63.50;45.25;;;;;0.12;56.42;101860.25;5035333;28;45621;-67
2022/12/18 08:16:09;;;;;;;;;55.75;45.50;;;;;0.19;56.11;101854.72;5038475;28;46238;-64
2022/12/18 08:18:36;;;;;;;;;56.00;44.75;;;;;0.23;56.11;101866.41;5037892;28;45613;-63
2022/12/18 08:21:31;;;;;;;;;71.50;49.25;;;;;0.20;56.08;101872.34;5043945;28;45654;-65
2022/12/18 08:23:59;;;;;;;;;59.50;43.75;;;;;0.15;55.85;101871.03;5027505;28;45427;-65
2022/12/18 08:26:27;;;;;;;;;55.25;46.50;;;;;0.24;56.46;101881.41;5037444;28;48044;-66
2022/12/18 08:28:54;;;;;;;;;50.50;39.25;;;;;0.12;55.86;101881.28;5040851;28;46756;-64
2022/12/18 08:31:20;;;;;;;;;66.50;47.25;;;;;-0.08;56.69;101846.31;5036019;28;46058;-66
2022/12/18 08:33:49;;;;;;;;;61.50;45.50;;;;;-0.10;56.43;101836.44;5045276;28;45459;-63
2022/12/18 08:36:14;;;;;;;;;59.50;45.50;;;;;0.16;56.16;101894.78;5036962;28;46372;-66
2022/12/18 08:38:40;;;;;;;;;57.50;41.50;;;;;0.22;55.84;101899.66;5044486;28;45530;-66
2022/12/18 08:41:11;;;;;;;;;49.25;37.50;;;;;0.07;56.08;101887.84;5046844;28;45585;-64
2022/12/18 08:46:22;;;;;;;;;54.75;43.00;;;;;0.02;56.91;101900.56;5040078;28;45845;-62
2022/12/18 08:48:49;;;;;;;;;62.25;44.75;;;;;-0.01;56.20;101911.72;5046561;28;45482;-64
2022/12/18 08:51:19;;;;;;;;;57.50;44.50;;;;;-0.01;56.15;101906.47;5046397;28;45385;-63
2022/12/18 08:53:45;;;;;;;;;63.25;41.50;;;;;-0.38;56.34;101847.16;5033661;28;45562;-65
2022/12/18 08:56:11;;;;;;;;;55.00;42.50;;;;;-0.11;56.95;101888.06;5041267;28;45571;-63
2022/12/18 08:58:36;;;;;;;;;53.50;42.00;;;;;0.12;56.03;101918.97;5033147;28;45640;-64
2022/12/18 09:01:04;;;;;;;;;62.50;43.00;;;;;0.11;56.54;101922.38;5036587;28;45512;-64
2022/12/18 09:03:29;;;;;;;;;60.25;44.00;;;;;0.07;55.91;101894.00;5051963;28;45678;-62
2022/12/18 09:05:55;;;;;;;;;61.00;46.00;;;;;0.25;56.06;101905.19;5041495;28;45727;-63
2022/12/18 09:08:20;;;;;;;;;68.25;47.75;;;;;0.32;55.20;101904.03;5039002;28;45426;-64
2022/12/18 09:10:48;;;;;;;;;51.50;45.25;;;;;0.05;55.67;101836.84;5036089;28;45479;-60
2022/12/18 09:13:15;;;;;;;;;56.75;47.25;;;;;0.25;56.00;101906.88;5036393;28;45506;-65
2022/12/18 09:15:45;;;;;;;;;59.00;45.50;;;;;0.19;55.76;101888.91;5039658;28;45704;-64
2022/12/18 09:18:12;;;;;;;;;59.50;44.00;;;;;-0.07;55.87;101829.75;5053617;28;45162;-63
2022/12/18 09:20:38;;;;;;;;;65.50;41.75;;;;;0.12;56.21;101845.41;5039120;28;45442;-63
2022/12/18 09:23:04;;;;;;;;;58.25;43.50;;;;;0.47;56.34;101892.19;5044997;28;45330;-65
2022/12/18 09:25:32;;;;;;;;;68.00;51.50;;;;;0.49;55.32;101881.78;5037456;28;45532;-63
2022/12/18 09:28:19;;;;;;;;;64.25;47.50;;;;;0.60;55.62;101902.03;5034304;28;45550;-62
2022/12/18 09:30:49;;;;;;;;;52.25;43.50;;;;;0.41;55.61;101874.97;5035823;28;45499;-64
2022/12/18 09:33:15;;;;;;;;;54.75;44.50;;;;;0.61;55.60;101887.16;5043108;28;45851;-66
2022/12/18 09:35:42;;;;;;;;;59.75;45.00;;;;;0.52;55.25;101882.06;5047721;28;47102;-68
2022/12/18 09:38:12;;;;;;;;;57.75;42.75;;;;;0.59;55.82;101880.88;5038072;28;45551;-67
2022/12/18 09:40:49;;;;;;;;;60.00;44.00;;;;;0.68;55.26;101887.81;5046600;28;45391;-67
2022/12/18 09:43:45;;;;;;;;;56.50;43.50;;;;;0.58;55.77;101873.75;5045369;28;45780;-64
2022/12/18 09:46:17;;;;;;;;;49.50;43.25;;;;;0.61;54.99;101882.84;5033597;28;45521;-63
2022/12/18 09:48:52;;;;;;;;;53.00;43.50;;;;;0.68;54.92;101886.91;5042748;28;45302;-64
2022/12/18 09:51:24;;;;;;;;;64.00;45.75;;;;;0.58;54.96;101868.50;5036728;28;45441;-64
2022/12/18 09:53:59;;;;;;;;;55.25;46.25;;;;;0.63;55.33;101882.97;5036237;28;45611;-63
2022/12/18 09:56:31;;;;;;;;;43.00;34.25;;;;;0.68;55.61;101898.34;5039529;28;48470;-62
2022/12/18 09:59:01;;;;;;;;;64.50;48.00;;;;;0.70;54.98;101882.69;5043848;28;45378;-65
2022/12/18 10:01:28;;;;;;;;;63.50;45.25;;;;;0.69;55.26;101872.94;5048742;28;45553;-64
2022/12/18 10:03:54;;;;;;;;;51.25;43.50;;;;;0.69;55.66;101875.59;5034528;28;45601;-65
2022/12/18 10:06:39;;;;;;;;;67.25;49.25;;;;;0.54;55.24;101856.81;5033321;28;46191;-65
2022/12/18 10:09:13;;;;;;;;;48.00;41.75;;;;;0.79;55.66;101866.75;5062428;28;45134;-62
2022/12/18 10:12:03;;;;;;;;;63.50;42.75;;;;;0.94;55.44;101867.09;5052224;28;45000;-63
2022/12/18 10:14:40;;;;;;;;;65.00;45.00;;;;;0.99;55.13;101861.44;5066372;28;45379;-64
2022/12/18 10:17:25;;;;;;;;;66.25;47.75;;;;;1.04;54.63;101865.38;5042735;28;47236;-65
2022/12/18 10:20:19;;;;;;;;;57.50;44.50;;;;;0.94;55.42;101849.63;5033471;28;45677;-64
2022/12/18 10:23:01;;;;;;;;;69.75;48.00;;;;;1.05;54.46;101871.56;5031390;28;45825;-63
2022/12/18 10:25:50;;;;;;;;;53.75;42.50;;;;;0.93;55.20;101831.09;5033105;28;45674;-64
2022/12/18 10:28:18;;;;;;;;;56.00;43.50;;;;;1.08;54.90;101842.88;5042881;28;45482;-65
2022/12/18 10:30:44;;;;;;;;;62.00;44.00;;;;;1.19;54.10;101842.03;5035090;28;45589;-67
2022/12/18 10:33:18;;;;;;;;;58.50;42.25;;;;;1.28;54.37;101837.50;5035700;28;45544;-65
2022/12/18 10:35:45;;;;;;;;;65.50;50.00;;;;;1.43;54.37;101842.16;5034342;28;45494;-64
2022/12/18 10:38:16;;;;;;;;;56.00;44.75;;;;;1.45;54.22;101843.22;5042232;28;46727;-64
2022/12/18 10:40:57;;;;;;;;;53.00;41.50;;;;;1.36;54.17;101818.78;5043940;28;45527;-65
2022/12/18 10:43:36;;;;;;;;;52.75;42.25;;;;;1.47;55.05;101833.75;5049931;28;45437;-64
2022/12/18 10:46:07;;;;;;;;;44.75;40.00;;;;;1.56;53.78;101845.00;5045108;28;46190;-66
2022/12/18 10:48:39;;;;;;;;;59.25;41.25;;;;;1.65;54.30;101843.09;5051833;28;45390;-66
2022/12/18 10:51:06;;;;;;;;;52.75;42.25;;;;;1.64;53.56;101837.72;5056054;28;45132;-64
2022/12/18 10:53:34;;;;;;;;;64.50;47.25;;;;;1.54;53.38;101837.78;5057617;28;45132;-65
2022/12/18 10:56:06;;;;;;;;;47.50;40.50;;;;;1.33;54.10;101792.22;5065307;28;45189;-67
2022/12/18 10:58:36;;;;;;;;;62.50;45.50;;;;;1.55;53.78;101831.69;5061522;28;46871;-66
2022/12/18 11:01:09;;;;;;;;;55.25;43.25;;;;;1.54;53.80;101829.88;5054267;28;45283;-65
2022/12/18 11:03:39;;;;;;;;;60.75;42.50;;;;;1.49;54.34;101825.97;5048097;28;45612;-67
2022/12/18 11:06:16;;;;;;;;;64.25;44.75;;;;;1.52;54.57;101829.75;5041406;28;45597;-66
2022/12/18 11:08:44;;;;;;;;;58.25;43.00;;;;;1.56;54.39;101825.66;5038560;28;46378;-65
2022/12/18 11:11:21;;;;;;;;;44.50;39.25;;;;;1.69;53.99;101824.91;5038193;28;45483;-63
2022/12/18 11:14:06;;;;;;;;;60.75;41.75;;;;;1.68;54.11;101823.06;5039471;28;45535;-65
2022/12/18 11:16:42;;;;;;;;;57.00;44.75;;;;;1.78;54.17;101825.63;5036423;28;45425;-67
2022/12/18 11:19:15;;;;;;;;;56.50;44.00;;;;;1.81;54.38;101817.97;5049450;28;46377;-66
2022/12/18 11:21:42;;;;;;;;;48.75;42.50;;;;;1.75;53.92;101792.06;5045365;28;45751;-67
2022/12/18 11:24:26;;;;;;;;;61.50;43.00;;;;;1.84;53.72;101800.69;5038271;28;46107;-66
2022/12/18 11:26:51;;;;;;;;;70.25;47.50;;;;;1.97;53.26;101815.75;5036069;28;45650;-66
2022/12/18 11:29:22;;;;;;;;;60.50;48.00;;;;;2.06;53.37;101810.25;5041734;28;45664;-68
2022/12/18 11:31:48;;;;;;;;;55.00;42.25;;;;;2.16;52.99;101815.47;5035850;28;45376;-66
2022/12/18 11:34:22;;;;;;;;;61.00;42.50;;;;;2.24;53.16;101801.94;5036207;28;45371;-68